createdAt,value
2022-11-11T00:00:32.809Z,11.43
2022-11-11T00:03:23.973Z,10.10
2022-11-11T00:06:11.867Z,11.35
2022-11-11T00:08:57.998Z,11.43
2022-11-11T00:11:44.015Z,12.75
2022-11-11T00:14:30.466Z,12.82
2022-11-11T00:17:34.894Z,13.93
2022-11-11T00:20:44.332Z,13.32
2022-11-11T00:23:49.650Z,14.15
2022-11-11T00:26:40.321Z,15.60
2022-11-11T00:29:27.096Z,14.40
2022-11-11T00:32:29.088Z,16.58
2022-11-11T00:35:33.613Z,15.63
2022-11-11T00:38:39.291Z,17.27
2022-11-11T00:41:27.871Z,16.35
2022-11-11T00:44:14.552Z,16.98
2022-11-11T00:47:19.166Z,19.17
2022-11-11T00:50:27.474Z,18.85
2022-11-11T00:53:23.097Z,18.08
2022-11-11T00:56:12.300Z,19.20
2022-11-11T00:58:58.163Z,17.52
2022-11-11T01:01:44.210Z,20.45
2022-11-11T01:04:30.157Z,21.77
2022-11-11T01:07:16.139Z,21.67
2022-11-11T01:10:02.756Z,22.50
2022-11-11T01:12:48.826Z,21.55
2022-11-11T01:15:34.971Z,23.67
2022-11-11T01:18:23.090Z,23.38
2022-11-11T01:21:14.662Z,19.00
2022-11-11T01:24:02.087Z,24.27
2022-11-11T01:26:48.571Z,22.08
2022-11-11T01:29:34.597Z,23.70
2022-11-11T01:32:20.238Z,24.48
2022-11-11T01:35:06.748Z,23.75
2022-11-11T01:37:52.976Z,23.23
2022-11-11T01:40:44.890Z,25.27
2022-11-11T01:43:31.262Z,24.33
2022-11-11T01:46:32.822Z,25.10
2022-11-11T01:49:29.751Z,21.58
2022-11-11T01:52:19.420Z,23.65
2022-11-11T01:57:54.897Z,21.98
2022-11-11T02:00:41.190Z,22.02
2022-11-11T02:03:28.975Z,23.85
2022-11-11T02:06:15.517Z,24.65
2022-11-11T02:09:04.744Z,23.10
2022-11-11T02:12:09.933Z,24.67
2022-11-11T02:15:01.151Z,25.65
2022-11-11T02:17:50.150Z,24.00
2022-11-11T02:20:41.336Z,24.77
2022-11-11T02:23:48.363Z,23.65
2022-11-11T02:26:35.828Z,24.95
2022-11-11T02:29:22.428Z,24.02
2022-11-11T02:32:08.466Z,26.45
2022-11-11T02:34:55.030Z,25.92
2022-11-11T02:37:44.607Z,25.15
2022-11-11T02:40:37.201Z,25.55
2022-11-11T02:43:23.436Z,26.70
2022-11-11T02:46:10.297Z,24.77
2022-11-11T02:48:56.691Z,26.83
2022-11-11T02:51:42.609Z,25.50
2022-11-11T02:54:28.884Z,26.20
2022-11-11T02:57:15.385Z,26.23
2022-11-11T03:00:05.457Z,27.25
2022-11-11T03:02:51.803Z,25.02
2022-11-11T03:05:37.959Z,25.58
2022-11-11T03:08:23.803Z,26.27
2022-11-11T03:11:10.297Z,25.17
2022-11-11T03:13:59.622Z,24.48
2022-11-11T03:17:04.280Z,26.40
2022-11-11T03:19:50.494Z,26.30
2022-11-11T03:22:54.981Z,28.27
2022-11-11T03:25:48.579Z,28.60
2022-11-11T03:28:34.633Z,31.65
2022-11-11T03:31:20.607Z,30.80
2022-11-11T03:34:18.679Z,27.33
2022-11-11T03:37:27.655Z,30.35
2022-11-11T03:40:14.112Z,29.98
2022-11-11T03:43:04.650Z,27.95
2022-11-11T03:45:52.633Z,28.50
2022-11-11T03:48:38.887Z,29.30
2022-11-11T03:51:24.852Z,32.72
2022-11-11T03:54:10.688Z,31.17
2022-11-11T03:57:16.700Z,33.63
2022-11-11T04:00:03.450Z,29.38
2022-11-11T04:03:11.600Z,31.05
2022-11-11T04:06:19.636Z,31.25
2022-11-11T04:09:24.005Z,28.30
2022-11-11T04:12:09.931Z,30.40
2022-11-11T04:15:14.461Z,29.30
2022-11-11T04:18:04.091Z,32.78
2022-11-11T04:21:10.146Z,29.83
2022-11-11T04:23:57.155Z,32.53
2022-11-11T04:26:43.236Z,30.48
2022-11-11T04:29:29.872Z,30.73
2022-11-11T04:32:35.490Z,26.15
2022-11-11T04:35:21.445Z,29.92
2022-11-11T04:38:26.008Z,29.63
2022-11-11T04:41:13.096Z,27.80
2022-11-11T04:44:17.398Z,28.92
2022-11-11T04:47:03.242Z,27.88
2022-11-11T04:49:49.032Z,32.95
2022-11-11T04:52:34.858Z,27.83
2022-11-11T04:55:39.200Z,24.65
2022-11-11T04:58:26.816Z,28.98
2022-11-11T05:01:33.160Z,26.90
2022-11-11T05:04:19.191Z,28.80
2022-11-11T05:07:24.170Z,28.58
2022-11-11T05:10:10.396Z,27.90
2022-11-11T05:13:20.944Z,28.00
2022-11-11T05:16:33.744Z,31.23
2022-11-11T05:19:53.683Z,28.08
2022-11-11T05:22:41.076Z,30.02
2022-11-11T05:38:54.810Z,26.15
2022-11-11T05:41:40.712Z,27.92
2022-11-11T05:44:30.976Z,26.40
2022-11-11T05:47:17.677Z,27.45
2022-11-11T05:50:03.787Z,28.73
2022-11-11T05:52:50.641Z,25.90
2022-11-11T05:55:39.316Z,26.65
2022-11-11T05:58:27.653Z,25.60
2022-11-11T06:01:13.728Z,28.40
2022-11-11T06:03:59.807Z,29.33
2022-11-11T06:06:46.085Z,25.27
2022-11-11T06:09:31.749Z,27.77
2022-11-11T06:12:17.631Z,26.65
2022-11-11T06:15:03.426Z,27.73
2022-11-11T06:17:49.292Z,26.88
2022-11-11T06:20:38.018Z,25.58
2022-11-11T06:23:24.645Z,27.27
2022-11-11T06:26:17.151Z,28.10
2022-11-11T06:29:04.651Z,26.45
2022-11-11T06:31:50.764Z,28.60
2022-11-11T06:34:36.970Z,27.20
2022-11-11T06:37:22.619Z,25.83
2022-11-11T06:40:11.090Z,27.25
2022-11-11T06:42:57.259Z,25.20
2022-11-11T06:45:43.133Z,25.27
2022-11-11T06:48:29.783Z,25.15
2022-11-11T06:51:16.241Z,24.67
2022-11-11T06:54:02.216Z,24.70
2022-11-11T06:56:49.233Z,24.60
2022-11-11T06:59:35.502Z,27.33
2022-11-11T07:02:21.576Z,23.92
2022-11-11T07:05:08.041Z,26.80
2022-11-11T07:07:54.218Z,26.00
2022-11-11T07:10:43.952Z,24.80
2022-11-11T07:13:29.920Z,28.15
2022-11-11T07:16:15.843Z,27.77
2022-11-11T07:19:02.555Z,26.33
2022-11-11T07:21:48.305Z,28.98
2022-11-11T07:24:34.349Z,27.70
2022-11-11T07:27:20.441Z,26.35
2022-11-11T07:30:07.198Z,28.85
2022-11-11T07:32:56.469Z,24.58
2022-11-11T07:38:28.270Z,27.80
2022-11-11T07:41:14.170Z,20.45
2022-11-11T07:44:00.361Z,25.15
2022-11-11T07:46:46.113Z,27.20
2022-11-11T07:49:32.241Z,27.35
2022-11-11T07:52:19.592Z,24.40
2022-11-11T07:55:06.677Z,25.48
2022-11-11T07:57:55.374Z,26.35
2022-11-11T08:00:42.572Z,25.90
2022-11-11T08:03:28.636Z,28.98
2022-11-11T08:06:14.691Z,26.08
2022-11-11T08:09:00.611Z,25.42
2022-11-11T08:12:05.384Z,27.92
2022-11-11T08:14:51.199Z,29.42
2022-11-11T08:17:38.326Z,27.92
2022-11-11T08:20:24.545Z,24.70
2022-11-11T08:26:16.724Z,25.02
2022-11-11T08:29:05.684Z,25.17
2022-11-11T08:31:53.632Z,27.25
2022-11-11T08:34:39.949Z,25.77
2022-11-11T08:37:26.224Z,24.38
2022-11-11T08:40:15.979Z,24.40
2022-11-11T08:43:02.194Z,23.38
2022-11-11T08:45:50.989Z,26.38
2022-11-11T08:48:37.155Z,22.50
2022-11-11T08:51:23.317Z,25.52
2022-11-11T08:54:09.836Z,22.98
2022-11-11T08:56:56.581Z,24.23
2022-11-11T08:59:42.756Z,22.33
2022-11-11T09:02:28.880Z,21.30
2022-11-11T09:05:14.812Z,22.15
2022-11-11T09:08:08.117Z,22.90
2022-11-11T09:10:54.024Z,21.10
2022-11-11T09:13:40.648Z,22.27
2022-11-11T09:16:32.449Z,21.55
2022-11-11T09:19:20.679Z,22.80
2022-11-11T09:22:07.268Z,19.58
2022-11-11T09:24:54.483Z,21.13
2022-11-11T09:27:40.315Z,17.65
2022-11-11T09:30:27.505Z,21.85
2022-11-11T09:33:16.272Z,22.40
2022-11-11T09:36:02.117Z,19.55
2022-11-11T09:38:48.026Z,21.10
2022-11-11T09:41:54.737Z,22.60
2022-11-11T09:44:45.316Z,21.50
2022-11-11T09:47:36.402Z,20.35
2022-11-11T09:50:26.780Z,18.83
2022-11-11T09:53:30.428Z,20.00
2022-11-11T09:56:30.677Z,20.38
2022-11-11T09:59:17.420Z,20.48
2022-11-11T10:02:03.920Z,19.70
2022-11-11T10:05:08.953Z,20.63
2022-11-11T10:07:55.082Z,18.38
2022-11-11T10:10:47.925Z,15.10
2022-11-11T10:13:35.803Z,14.38
2022-11-11T10:16:40.587Z,18.55
2022-11-11T10:19:45.372Z,16.00
2022-11-11T10:22:43.616Z,16.92
2022-11-11T10:25:30.456Z,26.30
2022-11-11T10:28:18.939Z,24.08
2022-11-11T10:31:07.516Z,22.35
2022-11-11T10:34:00.009Z,20.55
2022-11-11T10:36:49.040Z,19.90
2022-11-11T10:39:54.065Z,18.80
2022-11-11T10:42:43.608Z,17.65
2022-11-11T10:45:47.386Z,18.08
2022-11-11T10:48:47.613Z,18.05
2022-11-11T10:51:45.397Z,17.98
2022-11-11T10:54:39.617Z,17.13
2022-11-11T10:57:29.173Z,16.98
2022-11-11T11:00:16.730Z,16.58
2022-11-11T11:03:02.614Z,14.98
2022-11-11T11:05:56.297Z,20.20
2022-11-11T11:08:45.359Z,17.85
2022-11-11T11:11:41.890Z,16.27
2022-11-11T11:14:33.671Z,16.77
2022-11-11T11:17:36.469Z,17.73
2022-11-11T11:20:27.459Z,16.17
2022-11-11T11:23:13.641Z,17.42
2022-11-11T11:25:59.596Z,17.38
2022-11-11T11:28:56.131Z,15.65
2022-11-11T11:31:47.783Z,16.65
2022-11-11T11:34:44.759Z,15.35
2022-11-11T11:37:30.990Z,13.93
2022-11-11T11:40:16.925Z,13.57
2022-11-11T11:43:03.447Z,16.45
2022-11-11T11:45:57.337Z,15.50
2022-11-11T11:48:44.849Z,15.55
2022-11-11T11:51:42.228Z,13.80
2022-11-11T11:54:39.614Z,16.95
2022-11-11T11:57:44.256Z,19.48
2022-11-11T12:00:39.479Z,17.20
2022-11-11T12:03:43.456Z,18.45
2022-11-11T12:06:37.600Z,19.10
2022-11-11T12:09:35.782Z,20.58
2022-11-11T12:12:39.959Z,18.52
2022-11-11T12:15:49.247Z,16.85
2022-11-11T12:21:24.938Z,15.30
2022-11-11T12:24:29.419Z,15.63
2022-11-11T12:27:37.024Z,16.10
2022-11-11T12:30:30.509Z,14.95
2022-11-11T12:33:35.314Z,17.10
2022-11-11T12:36:25.368Z,17.77
2022-11-11T12:39:34.038Z,17.33
2022-11-11T12:42:38.875Z,16.95
2022-11-11T12:45:26.499Z,17.85
2022-11-11T12:48:31.134Z,15.63
2022-11-11T12:51:34.404Z,15.48
2022-11-11T12:54:42.025Z,17.42
2022-11-11T12:57:36.717Z,16.30
2022-11-11T13:00:23.584Z,17.08
2022-11-11T13:03:15.172Z,18.73
2022-11-11T13:06:08.045Z,18.20
2022-11-11T13:09:00.741Z,16.73
2022-11-11T13:12:15.384Z,17.10
2022-11-11T13:15:07.072Z,19.20
2022-11-11T13:17:53.786Z,23.63
2022-11-11T13:20:48.310Z,21.67
2022-11-11T13:23:36.749Z,23.17
2022-11-11T13:26:22.610Z,21.88
2022-11-11T13:29:08.650Z,22.45
2022-11-11T13:31:55.859Z,25.08
2022-11-11T13:34:42.425Z,21.23
2022-11-11T13:37:30.415Z,22.52
2022-11-11T13:40:27.700Z,23.15
2022-11-11T13:43:31.748Z,21.42
2022-11-11T13:46:29.640Z,18.98
2022-11-11T13:49:30.250Z,21.00
2022-11-11T13:52:30.909Z,19.63
2022-11-11T13:55:32.187Z,18.40
2022-11-11T13:58:29.933Z,18.98
2022-11-11T14:01:19.049Z,18.60
2022-11-11T14:04:06.328Z,16.88
2022-11-11T14:06:53.752Z,14.38
2022-11-11T14:10:00.291Z,16.05
2022-11-11T14:12:49.562Z,16.23
2022-11-11T14:15:43.109Z,14.27
2022-11-11T14:18:35.227Z,12.48
2022-11-11T14:21:57.976Z,11.90
2022-11-11T14:24:45.765Z,13.35
2022-11-11T14:27:32.978Z,15.55
2022-11-11T14:30:38.730Z,17.92
2022-11-11T14:33:37.438Z,17.50
2022-11-11T14:36:28.724Z,16.30
2022-11-11T14:39:17.936Z,16.27
2022-11-11T14:42:04.318Z,14.73
2022-11-11T14:44:50.644Z,18.08
2022-11-11T14:47:40.677Z,16.10
2022-11-11T14:50:32.444Z,14.80
2022-11-11T14:53:20.161Z,16.33
2022-11-11T14:56:13.741Z,14.65
2022-11-11T14:59:05.435Z,14.65
2022-11-11T15:01:52.218Z,12.38
2022-11-11T15:04:38.998Z,13.98
2022-11-11T15:07:29.040Z,15.45
2022-11-11T15:10:18.357Z,15.43
2022-11-11T15:13:23.727Z,16.02
2022-11-11T15:16:25.462Z,17.80
2022-11-11T15:19:32.262Z,14.65
2022-11-11T15:22:27.654Z,15.68
2022-11-11T15:25:22.843Z,15.02
2022-11-11T15:28:20.850Z,13.50
2022-11-11T15:31:22.099Z,14.77
2022-11-11T15:34:19.884Z,11.05
2022-11-11T15:37:10.312Z,13.35
2022-11-11T15:39:57.725Z,10.35
2022-11-11T15:42:51.317Z,11.10
2022-11-11T15:45:37.371Z,13.02
2022-11-11T15:48:41.230Z,13.45
2022-11-11T15:51:31.524Z,12.18
2022-11-11T15:54:24.223Z,12.52
2022-11-11T15:57:24.872Z,12.82
2022-11-11T16:00:26.458Z,11.02
2022-11-11T16:03:23.387Z,12.63
2022-11-11T16:06:13.984Z,15.13
2022-11-11T16:08:59.998Z,13.93
2022-11-11T16:11:47.049Z,13.20
2022-11-11T16:14:41.238Z,14.25
2022-11-11T16:17:35.018Z,14.85
2022-11-11T16:20:23.181Z,18.13
2022-11-11T16:23:14.697Z,14.13
2022-11-11T16:26:01.110Z,15.45
2022-11-11T16:28:51.447Z,16.27
2022-11-11T16:31:43.972Z,12.70
2022-11-11T16:34:30.960Z,14.82
2022-11-11T16:37:18.024Z,14.50
2022-11-11T16:40:22.546Z,13.38
2022-11-11T16:43:28.870Z,16.25
2022-11-11T16:46:16.000Z,13.55
2022-11-11T16:49:21.316Z,14.05
2022-11-11T16:52:13.284Z,21.27
2022-11-11T16:55:01.140Z,17.08
2022-11-11T16:57:49.419Z,30.88
2022-11-11T17:00:35.483Z,19.20
2022-11-11T17:03:28.035Z,16.10
2022-11-11T17:06:14.378Z,15.20
2022-11-11T17:09:00.496Z,14.20
2022-11-11T17:11:47.540Z,14.65
2022-11-11T17:14:35.121Z,18.58
2022-11-11T17:17:21.851Z,20.05
2022-11-11T17:20:15.552Z,21.02
2022-11-11T17:23:06.612Z,18.95
2022-11-11T17:26:02.408Z,17.65
2022-11-11T17:28:50.698Z,16.65
2022-11-11T17:31:36.732Z,15.27
2022-11-11T17:34:22.942Z,16.35
2022-11-11T17:37:08.988Z,17.10
2022-11-11T17:39:55.092Z,16.38
2022-11-11T17:42:41.661Z,16.52
2022-11-11T17:45:28.383Z,16.25
2022-11-11T17:48:14.347Z,15.68
2022-11-11T17:51:03.651Z,16.10
2022-11-11T17:53:49.896Z,16.10
2022-11-11T17:56:36.037Z,15.55
2022-11-11T17:59:21.873Z,15.63
2022-11-11T18:02:09.651Z,17.10
2022-11-11T18:04:58.081Z,17.52
2022-11-11T18:07:45.213Z,18.13
2022-11-11T18:10:34.426Z,17.23
2022-11-11T18:13:20.328Z,16.30
2022-11-11T18:16:07.283Z,14.82
2022-11-11T18:18:54.577Z,16.05
2022-11-11T18:21:42.474Z,17.13
2022-11-11T18:24:31.458Z,15.30
2022-11-11T18:27:17.594Z,15.00
2022-11-11T18:30:04.030Z,15.35
2022-11-11T18:32:50.266Z,15.43
2022-11-11T18:35:36.430Z,14.25
2022-11-11T18:38:25.063Z,21.92
2022-11-11T18:41:11.240Z,32.92
2022-11-11T18:43:58.938Z,24.00
2022-11-11T18:46:45.266Z,23.10
2022-11-11T18:52:35.124Z,28.17
2022-11-11T18:55:21.187Z,22.92
2022-11-11T18:58:07.189Z,19.58
2022-11-11T19:00:52.863Z,32.08
2022-11-11T19:03:40.687Z,27.40
2022-11-11T19:06:27.632Z,27.48
2022-11-11T19:09:13.920Z,16.60
2022-11-11T19:12:01.497Z,14.10
2022-11-11T19:14:47.494Z,15.80
2022-11-11T19:17:33.610Z,14.60
2022-11-11T19:20:19.388Z,16.20
2022-11-11T19:23:08.482Z,16.95
2022-11-11T19:25:58.871Z,17.30
2022-11-11T19:28:44.672Z,20.15
2022-11-11T19:31:30.837Z,20.35
2022-11-11T19:34:16.683Z,20.58
2022-11-11T19:37:02.810Z,17.50
2022-11-11T19:39:49.000Z,17.90
2022-11-11T19:42:35.039Z,15.75
2022-11-11T19:45:21.057Z,15.93
2022-11-11T19:48:07.243Z,14.57
2022-11-11T19:50:52.963Z,15.10
2022-11-11T19:53:39.390Z,16.13
2022-11-11T19:56:26.250Z,16.98
2022-11-11T19:59:12.134Z,16.35
2022-11-11T20:01:58.236Z,16.92
2022-11-11T20:04:44.343Z,14.68
2022-11-11T20:07:42.955Z,16.52
2022-11-11T20:10:29.110Z,15.68
2022-11-11T20:13:15.183Z,18.10
2022-11-11T20:16:02.611Z,17.52
2022-11-11T20:18:48.599Z,18.17
2022-11-11T20:21:44.440Z,18.35
2022-11-11T20:24:37.818Z,19.10
2022-11-11T20:27:24.766Z,20.65
2022-11-11T20:30:11.234Z,20.77
2022-11-11T20:32:57.203Z,18.90
2022-11-11T20:35:43.556Z,21.35
2022-11-11T20:38:30.634Z,18.38
2022-11-11T20:41:18.533Z,17.25
2022-11-11T20:44:06.077Z,19.45
2022-11-11T20:46:52.325Z,17.60
2022-11-11T20:49:38.601Z,20.23
2022-11-11T20:52:25.710Z,16.92
2022-11-11T20:55:12.055Z,15.77
2022-11-11T20:57:58.435Z,15.60
2022-11-11T21:00:44.297Z,14.65
2022-11-11T21:03:33.532Z,14.98
2022-11-11T21:06:19.776Z,14.60
2022-11-11T21:09:08.428Z,14.40
2022-11-11T21:11:54.493Z,14.93
2022-11-11T21:14:40.318Z,15.30
2022-11-11T21:17:28.957Z,14.85
2022-11-11T21:20:15.109Z,14.65
2022-11-11T21:23:06.984Z,14.68
2022-11-11T21:25:53.163Z,17.05
2022-11-11T21:28:42.147Z,14.98
2022-11-11T21:31:30.958Z,15.98
2022-11-11T21:34:19.837Z,13.80
2022-11-11T21:37:05.598Z,15.85
2022-11-11T21:39:51.857Z,17.13
2022-11-11T21:42:37.948Z,15.82
2022-11-11T21:45:23.625Z,17.17
2022-11-11T21:48:09.967Z,17.17
2022-11-11T21:51:01.531Z,18.20
2022-11-11T21:53:50.373Z,17.25
2022-11-11T21:56:37.611Z,13.73
2022-11-11T21:59:26.018Z,17.13
2022-11-11T22:02:12.115Z,16.08
2022-11-11T22:04:58.817Z,15.60
2022-11-11T22:07:44.727Z,15.80
2022-11-11T22:10:30.698Z,16.42
2022-11-11T22:13:16.843Z,14.68
2022-11-11T22:16:07.020Z,15.82
2022-11-11T22:18:53.921Z,14.00
2022-11-11T22:21:40.433Z,13.77
2022-11-11T22:24:26.076Z,15.52
2022-11-11T22:27:12.269Z,14.80
2022-11-11T22:29:58.115Z,14.57
2022-11-11T22:32:44.217Z,15.15
2022-11-11T22:35:33.011Z,14.13
2022-11-11T22:38:19.085Z,15.60
2022-11-11T22:41:06.382Z,14.30
2022-11-11T22:43:59.689Z,15.20
2022-11-11T22:46:47.568Z,14.23
2022-11-11T22:49:33.927Z,14.32
2022-11-11T22:52:20.150Z,14.55
2022-11-11T22:55:08.691Z,15.05
2022-11-11T22:57:59.074Z,16.58
2022-11-11T23:00:45.360Z,15.10
2022-11-11T23:03:38.100Z,14.88
2022-11-11T23:06:25.664Z,13.88
2022-11-11T23:09:12.110Z,13.98
2022-11-11T23:11:58.380Z,16.23
2022-11-11T23:14:44.204Z,14.57
2022-11-11T23:17:30.425Z,15.63
2022-11-11T23:20:16.651Z,16.23
2022-11-11T23:23:05.811Z,14.57
2022-11-11T23:25:55.092Z,14.23
2022-11-11T23:28:41.600Z,13.82
2022-11-11T23:31:28.673Z,14.75
2022-11-11T23:34:14.487Z,14.73
2022-11-11T23:37:05.081Z,15.65
2022-11-11T23:39:56.809Z,14.52
2022-11-11T23:42:43.045Z,14.18
2022-11-11T23:45:29.273Z,14.93
2022-11-11T23:48:15.424Z,13.18
2022-11-11T23:51:01.530Z,13.00
2022-11-11T23:53:50.995Z,13.48
2022-11-11T23:56:40.797Z,14.07
2022-11-11T23:59:29.758Z,13.70
